sensor_id;sensor_type;location;lat;lon;timestamp;pressure;altitude;pressure_sealevel;temperature;humidity
17936;BME280;9093;52.062;4.508;2023-07-20T00:01:34;101772.50;;;18.69;71.74
17936;BME280;9093;52.062;4.508;2023-07-20T00:04:14;101779.84;;;18.67;71.70
17936;BME280;9093;52.062;4.508;2023-07-20T00:06:55;101781.69;;;18.66;71.95
17936;BME280;9093;52.062;4.508;2023-07-20T00:09:35;101777.91;;;18.69;71.69
17936;BME280;9093;52.062;4.508;2023-07-20T00:12:15;101777.47;;;18.62;71.75
17936;BME280;9093;52.062;4.508;2023-07-20T00:14:56;101782.03;;;18.62;72.01
17936;BME280;9093;52.062;4.508;2023-07-20T00:17:36;101778.34;;;18.63;72.18
17936;BME280;9093;52.062;4.508;2023-07-20T00:20:17;101777.59;;;18.61;72.12
17936;BME280;9093;52.062;4.508;2023-07-20T00:22:58;101774.88;;;18.61;72.28
17936;BME280;9093;52.062;4.508;2023-07-20T00:25:38;101778.56;;;18.60;72.01
17936;BME280;9093;52.062;4.508;2023-07-20T00:28:18;101781.66;;;18.54;72.10
17936;BME280;9093;52.062;4.508;2023-07-20T00:30:59;101788.50;;;18.46;72.17
17936;BME280;9093;52.062;4.508;2023-07-20T00:33:40;101783.31;;;18.43;72.24
17936;BME280;9093;52.062;4.508;2023-07-20T00:36:20;101781.59;;;18.42;72.33
17936;BME280;9093;52.062;4.508;2023-07-20T00:39:00;101782.91;;;18.37;72.23
17936;BME280;9093;52.062;4.508;2023-07-20T00:41:41;101785.94;;;18.32;72.29
17936;BME280;9093;52.062;4.508;2023-07-20T00:44:21;101777.25;;;18.27;72.29
17936;BME280;9093;52.062;4.508;2023-07-20T00:47:01;101772.53;;;18.18;72.41
17936;BME280;9093;52.062;4.508;2023-07-20T00:49:42;101774.81;;;18.12;72.46
17936;BME280;9093;52.062;4.508;2023-07-20T00:52:23;101778.56;;;18.09;72.55
17936;BME280;9093;52.062;4.508;2023-07-20T00:55:07;101768.31;;;18.01;72.62
17936;BME280;9093;52.062;4.508;2023-07-20T00:57:47;101776.00;;;17.95;72.63
17936;BME280;9093;52.062;4.508;2023-07-20T01:00:28;101779.84;;;17.91;72.89
17936;BME280;9093;52.062;4.508;2023-07-20T01:03:08;101767.75;;;17.84;72.76
17936;BME280;9093;52.062;4.508;2023-07-20T01:08:43;101777.03;;;17.80;73.01
17936;BME280;9093;52.062;4.508;2023-07-20T01:11:37;101781.13;;;17.73;72.99
17936;BME280;9093;52.062;4.508;2023-07-20T01:14:18;101776.16;;;17.66;73.07
17936;BME280;9093;52.062;4.508;2023-07-20T01:16:58;101774.66;;;17.62;73.06
17936;BME280;9093;52.062;4.508;2023-07-20T01:19:39;101781.97;;;17.60;73.07
17936;BME280;9093;52.062;4.508;2023-07-20T01:22:52;101784.97;;;17.56;73.21
17936;BME280;9093;52.062;4.508;2023-07-20T01:25:58;101788.31;;;17.59;73.15
17936;BME280;9093;52.062;4.508;2023-07-20T01:28:53;101790.09;;;17.60;73.13
17936;BME280;9093;52.062;4.508;2023-07-20T01:31:38;101794.03;;;17.55;73.25
17936;BME280;9093;52.062;4.508;2023-07-20T01:34:20;101804.06;;;17.53;73.37
17936;BME280;9093;52.062;4.508;2023-07-20T01:37:03;101798.03;;;17.49;73.20
17936;BME280;9093;52.062;4.508;2023-07-20T01:39:43;101797.78;;;17.52;73.41
17936;BME280;9093;52.062;4.508;2023-07-20T01:42:24;101791.44;;;17.53;73.43
17936;BME280;9093;52.062;4.508;2023-07-20T01:45:05;101793.41;;;17.51;73.47
17936;BME280;9093;52.062;4.508;2023-07-20T01:47:45;101791.44;;;17.53;73.43
17936;BME280;9093;52.062;4.508;2023-07-20T01:50:26;101792.31;;;17.54;73.58
17936;BME280;9093;52.062;4.508;2023-07-20T01:53:06;101796.84;;;17.53;73.62
17936;BME280;9093;52.062;4.508;2023-07-20T01:55:46;101795.31;;;17.49;73.62
17936;BME280;9093;52.062;4.508;2023-07-20T01:58:26;101793.41;;;17.51;73.60
17936;BME280;9093;52.062;4.508;2023-07-20T02:01:07;101798.56;;;17.54;73.87
17936;BME280;9093;52.062;4.508;2023-07-20T02:03:47;101803.09;;;17.54;73.84
17936;BME280;9093;52.062;4.508;2023-07-20T02:06:27;101807.09;;;17.48;73.93
17936;BME280;9093;52.062;4.508;2023-07-20T02:09:08;101803.44;;;17.49;73.89
17936;BME280;9093;52.062;4.508;2023-07-20T02:11:48;101802.66;;;17.47;73.93
17936;BME280;9093;52.062;4.508;2023-07-20T02:14:28;101799.19;;;17.45;74.22
17936;BME280;9093;52.062;4.508;2023-07-20T02:17:08;101799.09;;;17.47;74.10
17936;BME280;9093;52.062;4.508;2023-07-20T02:19:52;101800.03;;;17.46;73.96
17936;BME280;9093;52.062;4.508;2023-07-20T02:22:32;101791.66;;;17.50;74.14
17936;BME280;9093;52.062;4.508;2023-07-20T02:25:13;101800.72;;;17.49;74.16
17936;BME280;9093;52.062;4.508;2023-07-20T02:27:53;101793.03;;;17.43;74.33
17936;BME280;9093;52.062;4.508;2023-07-20T02:30:33;101804.56;;;17.45;74.48
17936;BME280;9093;52.062;4.508;2023-07-20T02:33:14;101795.84;;;17.42;74.60
17936;BME280;9093;52.062;4.508;2023-07-20T02:35:54;101799.81;;;17.36;74.56
17936;BME280;9093;52.062;4.508;2023-07-20T02:38:35;101789.78;;;17.38;74.58
17936;BME280;9093;52.062;4.508;2023-07-20T02:41:15;101786.09;;;17.39;74.49
17936;BME280;9093;52.062;4.508;2023-07-20T02:43:56;101785.34;;;17.37;74.49
17936;BME280;9093;52.062;4.508;2023-07-20T02:46:36;101796.56;;;17.31;74.55
17936;BME280;9093;52.062;4.508;2023-07-20T02:49:17;101795.00;;;17.27;74.59
17936;BME280;9093;52.062;4.508;2023-07-20T02:51:57;101800.41;;;17.27;74.66
17936;BME280;9093;52.062;4.508;2023-07-20T02:54:37;101802.38;;;17.25;74.64
17936;BME280;9093;52.062;4.508;2023-07-20T02:57:18;101799.66;;;17.25;74.74
17936;BME280;9093;52.062;4.508;2023-07-20T02:59:58;101809.09;;;17.32;74.56
17936;BME280;9093;52.062;4.508;2023-07-20T03:02:38;101805.00;;;17.39;74.36
17936;BME280;9093;52.062;4.508;2023-07-20T03:05:19;101810.63;;;17.36;74.23
17936;BME280;9093;52.062;4.508;2023-07-20T03:07:59;101812.53;;;17.34;74.38
17936;BME280;9093;52.062;4.508;2023-07-20T03:10:42;101818.56;;;17.25;74.30
17936;BME280;9093;52.062;4.508;2023-07-20T03:13:23;101819.84;;;17.19;74.59
17936;BME280;9093;52.062;4.508;2023-07-20T03:16:04;101824.56;;;17.16;74.70
17936;BME280;9093;52.062;4.508;2023-07-20T03:18:44;101819.38;;;17.13;74.97
17936;BME280;9093;52.062;4.508;2023-07-20T03:21:25;101821.31;;;17.11;74.70
17936;BME280;9093;52.062;4.508;2023-07-20T03:24:05;101831.41;;;17.07;74.69
17936;BME280;9093;52.062;4.508;2023-07-20T03:26:46;101827.19;;;17.03;74.76
17936;BME280;9093;52.062;4.508;2023-07-20T03:29:26;101833.44;;;17.04;74.80
17936;BME280;9093;52.062;4.508;2023-07-20T03:32:06;101829.03;;;17.03;74.73
17936;BME280;9093;52.062;4.508;2023-07-20T03:34:47;101838.44;;;17.10;74.51
17936;BME280;9093;52.062;4.508;2023-07-20T03:37:27;101839.88;;;17.15;74.49
17936;BME280;9093;52.062;4.508;2023-07-20T03:40:10;101835.56;;;17.13;74.46
17936;BME280;9093;52.062;4.508;2023-07-20T03:42:51;101833.81;;;17.12;74.76
17936;BME280;9093;52.062;4.508;2023-07-20T03:45:31;101832.09;;;17.11;74.70
17936;BME280;9093;52.062;4.508;2023-07-20T03:48:12;101834.00;;;17.09;74.63
17936;BME280;9093;52.062;4.508;2023-07-20T03:50:53;101835.97;;;17.07;74.73
17936;BME280;9093;52.062;4.508;2023-07-20T03:53:34;101829.50;;;17.09;74.89
17936;BME280;9093;52.062;4.508;2023-07-20T03:56:14;101832.50;;;17.05;74.62
17936;BME280;9093;52.062;4.508;2023-07-20T03:58:54;101839.91;;;17.01;74.77
17936;BME280;9093;52.062;4.508;2023-07-20T04:01:35;101836.38;;;17.01;74.87
17936;BME280;9093;52.062;4.508;2023-07-20T04:04:16;101829.25;;;17.00;74.85
17936;BME280;9093;52.062;4.508;2023-07-20T04:06:57;101830.97;;;17.01;74.87
17936;BME280;9093;52.062;4.508;2023-07-20T04:09:37;101828.16;;;17.02;74.86
17936;BME280;9093;52.062;4.508;2023-07-20T04:12:18;101835.50;;;17.00;74.90
17936;BME280;9093;52.062;4.508;2023-07-20T04:14:58;101832.69;;;17.02;74.93
17936;BME280;9093;52.062;4.508;2023-07-20T04:17:39;101829.25;;;17.00;75.12
17936;BME280;9093;52.062;4.508;2023-07-20T04:20:19;101835.28;;;17.03;74.72
17936;BME280;9093;52.062;4.508;2023-07-20T04:22:59;101828.53;;;17.10;74.92
17936;BME280;9093;52.062;4.508;2023-07-20T04:25:40;101832.09;;;17.11;74.90
17936;BME280;9093;52.062;4.508;2023-07-20T04:28:20;101844.63;;;17.12;75.01
17936;BME280;9093;52.062;4.508;2023-07-20T04:31:13;101832.97;;;17.11;75.11
17936;BME280;9093;52.062;4.508;2023-07-20T04:33:54;101841.16;;;17.10;74.95
17936;BME280;9093;52.062;4.508;2023-07-20T04:36:34;101850.66;;;17.15;75.32
17936;BME280;9093;52.062;4.508;2023-07-20T04:39:14;101845.97;;;17.19;75.29
17936;BME280;9093;52.062;4.508;2023-07-20T04:41:55;101854.63;;;17.24;75.31
17936;BME280;9093;52.062;4.508;2023-07-20T04:44:35;101851.91;;;17.24;75.35
17936;BME280;9093;52.062;4.508;2023-07-20T04:47:15;101853.44;;;17.28;75.56
17936;BME280;9093;52.062;4.508;2023-07-20T04:49:56;101859.38;;;17.33;75.42
17936;BME280;9093;52.062;4.508;2023-07-20T04:52:36;101858.78;;;17.42;75.53
17936;BME280;9093;52.062;4.508;2023-07-20T04:55:16;101860.53;;;17.43;75.45
17936;BME280;9093;52.062;4.508;2023-07-20T04:57:56;101861.28;;;17.45;75.51
17936;BME280;9093;52.062;4.508;2023-07-20T05:00:37;101857.34;;;17.51;75.54
17936;BME280;9093;52.062;4.508;2023-07-20T05:03:18;101864.91;;;17.58;75.54
17936;BME280;9093;52.062;4.508;2023-07-20T05:05:58;101858.28;;;17.64;75.37
17936;BME280;9093;52.062;4.508;2023-07-20T05:08:38;101862.59;;;17.66;75.37
17936;BME280;9093;52.062;4.508;2023-07-20T05:11:19;101859.88;;;17.66;75.50
17936;BME280;9093;52.062;4.508;2023-07-20T05:14:00;101863.25;;;17.70;75.61
17936;BME280;9093;52.062;4.508;2023-07-20T05:16:40;101851.38;;;17.73;75.51
17936;BME280;9093;52.062;4.508;2023-07-20T05:19:21;101865.97;;;17.70;75.63
17936;BME280;9093;52.062;4.508;2023-07-20T05:22:01;101868.66;;;17.70;75.62
17936;BME280;9093;52.062;4.508;2023-07-20T05:24:41;101865.84;;;17.72;75.60
17936;BME280;9093;52.062;4.508;2023-07-20T05:27:22;101863.34;;;17.68;75.63
17936;BME280;9093;52.062;4.508;2023-07-20T05:30:03;101866.06;;;17.68;75.63
17936;BME280;9093;52.062;4.508;2023-07-20T05:32:44;101863.47;;;17.67;75.64
17936;BME280;9093;52.062;4.508;2023-07-20T05:35:31;101860.09;;;17.63;75.78
17936;BME280;9093;52.062;4.508;2023-07-20T05:38:11;101860.22;;;17.62;75.69
17936;BME280;9093;52.062;4.508;2023-07-20T05:40:51;101862.09;;;17.60;75.81
17936;BME280;9093;52.062;4.508;2023-07-20T05:43:32;101852.38;;;17.57;75.84
17936;BME280;9093;52.062;4.508;2023-07-20T05:46:12;101859.41;;;17.60;75.67
17936;BME280;9093;52.062;4.508;2023-07-20T05:48:52;101854.97;;;17.59;75.77
17936;BME280;9093;52.062;4.508;2023-07-20T05:51:33;101861.94;;;17.63;75.91
17936;BME280;9093;52.062;4.508;2023-07-20T05:54:13;101863.78;;;17.62;75.83
17936;BME280;9093;52.062;4.508;2023-07-20T05:56:54;101870.19;;;17.60;75.82
17936;BME280;9093;52.062;4.508;2023-07-20T05:59:34;101864.91;;;17.58;75.67
17936;BME280;9093;52.062;4.508;2023-07-20T06:02:14;101863.19;;;17.57;75.97
17936;BME280;9093;52.062;4.508;2023-07-20T06:04:55;101866.84;;;17.56;75.93
17936;BME280;9093;52.062;4.508;2023-07-20T06:07:38;101862.31;;;17.57;75.95
17936;BME280;9093;52.062;4.508;2023-07-20T06:10:18;101865.59;;;17.62;75.95
17936;BME280;9093;52.062;4.508;2023-07-20T06:12:58;101864.91;;;17.58;75.75
17936;BME280;9093;52.062;4.508;2023-07-20T06:15:39;101867.72;;;17.57;75.96
17936;BME280;9093;52.062;4.508;2023-07-20T06:18:25;101875.81;;;17.57;76.06
17936;BME280;9093;52.062;4.508;2023-07-20T06:21:05;101886.34;;;17.61;76.00
17936;BME280;9093;52.062;4.508;2023-07-20T06:23:46;101875.31;;;17.64;75.72
17936;BME280;9093;52.062;4.508;2023-07-20T06:26:26;101876.31;;;17.63;75.78
17936;BME280;9093;52.062;4.508;2023-07-20T06:29:06;101881.91;;;17.60;76.02
17936;BME280;9093;52.062;4.508;2023-07-20T06:31:47;101873.81;;;17.60;75.95
17936;BME280;9093;52.062;4.508;2023-07-20T06:34:27;101879.09;;;17.62;75.82
17936;BME280;9093;52.062;4.508;2023-07-20T06:37:07;101881.91;;;17.60;75.79
17936;BME280;9093;52.062;4.508;2023-07-20T06:39:48;101878.53;;;17.57;75.99
17936;BME280;9093;52.062;4.508;2023-07-20T06:42:28;101885.63;;;17.58;75.78
17936;BME280;9093;52.062;4.508;2023-07-20T06:45:09;101884.97;;;17.54;75.91
17936;BME280;9093;52.062;4.508;2023-07-20T06:47:49;101886.91;;;17.52;75.96
17936;BME280;9093;52.062;4.508;2023-07-20T06:50:30;101890.59;;;17.51;76.09
17936;BME280;9093;52.062;4.508;2023-07-20T06:53:10;101888.88;;;17.50;76.11
17936;BME280;9093;52.062;4.508;2023-07-20T06:55:50;101887.91;;;17.51;76.07
17936;BME280;9093;52.062;4.508;2023-07-20T06:58:31;101893.31;;;17.51;76.05
17936;BME280;9093;52.062;4.508;2023-07-20T07:01:11;101891.44;;;17.52;75.97
17936;BME280;9093;52.062;4.508;2023-07-20T07:03:51;101896.75;;;17.53;76.08
17936;BME280;9093;52.062;4.508;2023-07-20T07:06:32;101895.00;;;17.52;76.07
17936;BME280;9093;52.062;4.508;2023-07-20T07:09:13;101891.16;;;17.56;76.11
17936;BME280;9093;52.062;4.508;2023-07-20T07:11:53;101893.56;;;17.61;76.02
17936;BME280;9093;52.062;4.508;2023-07-20T07:14:33;101895.22;;;17.63;75.99
17936;BME280;9093;52.062;4.508;2023-07-20T07:17:14;101898.88;;;17.62;76.11
17936;BME280;9093;52.062;4.508;2023-07-20T07:19:54;101895.00;;;17.66;76.12
17936;BME280;9093;52.062;4.508;2023-07-20T07:22:36;101896.50;;;17.71;76.21
17936;BME280;9093;52.062;4.508;2023-07-20T07:25:16;101899.81;;;17.76;75.96
17936;BME280;9093;52.062;4.508;2023-07-20T07:27:57;101896.97;;;17.77;75.76
17936;BME280;9093;52.062;4.508;2023-07-20T07:30:37;101892.44;;;17.78;76.35
17936;BME280;9093;52.062;4.508;2023-07-20T07:33:18;101898.63;;;17.80;75.94
17936;BME280;9093;52.062;4.508;2023-07-20T07:35:59;101893.97;;;17.82;76.13
17936;BME280;9093;52.062;4.508;2023-07-20T07:38:39;101894.72;;;17.84;76.20
17936;BME280;9093;52.062;4.508;2023-07-20T07:41:19;101895.31;;;17.89;76.36
17936;BME280;9093;52.062;4.508;2023-07-20T07:44:01;101898.56;;;17.94;76.22
17936;BME280;9093;52.062;4.508;2023-07-20T07:46:41;101890.22;;;17.97;76.15
17936;BME280;9093;52.062;4.508;2023-07-20T07:49:21;101890.81;;;18.02;76.24
17936;BME280;9093;52.062;4.508;2023-07-20T07:52:02;101905.81;;;18.06;76.16
17936;BME280;9093;52.062;4.508;2023-07-20T07:54:42;101911.78;;;18.11;76.30
17936;BME280;9093;52.062;4.508;2023-07-20T07:57:23;101898.16;;;18.13;76.26
17936;BME280;9093;52.062;4.508;2023-07-20T08:00:04;101906.72;;;18.19;76.20
17936;BME280;9093;52.062;4.508;2023-07-20T08:02:45;101907.44;;;18.21;76.10
17936;BME280;9093;52.062;4.508;2023-07-20T08:05:28;101906.38;;;18.24;76.06
17936;BME280;9093;52.062;4.508;2023-07-20T08:08:08;101908.78;;;18.28;76.03
17936;BME280;9093;52.062;4.508;2023-07-20T08:10:48;101914.63;;;18.35;76.02
17936;BME280;9093;52.062;4.508;2023-07-20T08:13:29;101909.88;;;18.38;76.12
17936;BME280;9093;52.062;4.508;2023-07-20T08:16:09;101907.81;;;18.42;75.95
17936;BME280;9093;52.062;4.508;2023-07-20T08:18:49;101906.94;;;18.41;75.85
17936;BME280;9093;52.062;4.508;2023-07-20T08:21:30;101905.34;;;18.39;75.81
17936;BME280;9093;52.062;4.508;2023-07-20T08:24:10;101905.78;;;18.33;75.65
17936;BME280;9093;52.062;4.508;2023-07-20T08:26:51;101910.50;;;18.29;75.86
17936;BME280;9093;52.062;4.508;2023-07-20T08:29:31;101902.81;;;18.23;75.49
17936;BME280;9093;52.062;4.508;2023-07-20T08:32:12;101907.78;;;18.17;75.38
17936;BME280;9093;52.062;4.508;2023-07-20T08:34:54;101909.84;;;18.13;75.47
17936;BME280;9093;52.062;4.508;2023-07-20T08:37:35;101907.88;;;18.15;75.06
17936;BME280;9093;52.062;4.508;2023-07-20T08:40:15;101905.31;;;18.14;75.09
17936;BME280;9093;52.062;4.508;2023-07-20T08:42:56;101902.47;;;18.15;75.19
17936;BME280;9093;52.062;4.508;2023-07-20T08:45:41;101907.69;;;18.18;75.00
17936;BME280;9093;52.062;4.508;2023-07-20T08:48:21;101897.63;;;18.20;74.71
17936;BME280;9093;52.062;4.508;2023-07-20T08:51:04;101903.59;;;18.25;74.77
17936;BME280;9093;52.062;4.508;2023-07-20T08:53:45;101901.44;;;18.30;74.53
17936;BME280;9093;52.062;4.508;2023-07-20T08:56:26;101903.94;;;18.33;74.62
17936;BME280;9093;52.062;4.508;2023-07-20T08:59:08;101904.34;;;18.40;74.36
17936;BME280;9093;52.062;4.508;2023-07-20T09:01:49;101892.47;;;18.42;74.34
17936;BME280;9093;52.062;4.508;2023-07-20T09:04:29;101899.28;;;18.48;74.43
17936;BME280;9093;52.062;4.508;2023-07-20T09:07:10;101902.66;;;18.52;74.16
17936;BME280;9093;52.062;4.508;2023-07-20T09:09:51;101902.66;;;18.52;74.33
17936;BME280;9093;52.062;4.508;2023-07-20T09:12:34;101901.53;;;18.54;74.18
17936;BME280;9093;52.062;4.508;2023-07-20T09:15:15;101905.91;;;18.57;74.41
17936;BME280;9093;52.062;4.508;2023-07-20T09:17:56;101899.53;;;18.58;74.34
17936;BME280;9093;52.062;4.508;2023-07-20T09:20:41;101895.00;;;18.58;74.42
17936;BME280;9093;52.062;4.508;2023-07-20T09:23:29;101900.28;;;18.60;74.20
17936;BME280;9093;52.062;4.508;2023-07-20T09:26:12;101897.25;;;18.64;74.22
17936;BME280;9093;52.062;4.508;2023-07-20T09:28:54;101896.06;;;18.68;74.18
17936;BME280;9093;52.062;4.508;2023-07-20T09:31:35;101902.00;;;18.73;73.94
17936;BME280;9093;52.062;4.508;2023-07-20T09:34:17;101897.25;;;18.77;73.73
17936;BME280;9093;52.062;4.508;2023-07-20T09:37:00;101898.84;;;18.79;73.60
17936;BME280;9093;52.062;4.508;2023-07-20T09:39:44;101891.41;;;18.83;73.27
17936;BME280;9093;52.062;4.508;2023-07-20T09:42:25;101894.75;;;18.86;73.38
17936;BME280;9093;52.062;4.508;2023-07-20T09:45:08;101899.81;;;18.91;73.04
17936;BME280;9093;52.062;4.508;2023-07-20T09:47:48;101894.97;;;18.96;73.14
17936;BME280;9093;52.062;4.508;2023-07-20T09:50:29;101894.53;;;19.02;73.20
17936;BME280;9093;52.062;4.508;2023-07-20T09:53:11;101888.00;;;19.05;73.30
17936;BME280;9093;52.062;4.508;2023-07-20T09:55:53;101890.69;;;19.05;73.32
17936;BME280;9093;52.062;4.508;2023-07-20T09:58:34;101889.72;;;19.06;73.18
17936;BME280;9093;52.062;4.508;2023-07-20T10:01:18;101896.88;;;19.07;72.97
17936;BME280;9093;52.062;4.508;2023-07-20T10:04:03;101888.53;;;19.10;72.67
17936;BME280;9093;52.062;4.508;2023-07-20T10:06:47;101890.03;;;19.14;72.63
17936;BME280;9093;52.062;4.508;2023-07-20T10:09:29;101895.22;;;19.17;72.87
17936;BME280;9093;52.062;4.508;2023-07-20T10:12:10;101890.78;;;19.16;72.71
17936;BME280;9093;52.062;4.508;2023-07-20T10:18:07;101892.94;;;19.23;72.09
17936;BME280;9093;52.062;4.508;2023-07-20T10:20:51;101894.66;;;19.24;71.96
17936;BME280;9093;52.062;4.508;2023-07-20T10:23:34;101901.91;;;19.24;71.88
17936;BME280;9093;52.062;4.508;2023-07-20T10:26:14;101898.59;;;19.20;71.53
17936;BME280;9093;52.062;4.508;2023-07-20T10:28:56;101887.75;;;19.20;71.33
17936;BME280;9093;52.062;4.508;2023-07-20T10:31:37;101891.19;;;19.22;71.05
17936;BME280;9093;52.062;4.508;2023-07-20T10:34:17;101890.75;;;19.28;70.58
17936;BME280;9093;52.062;4.508;2023-07-20T10:36:58;101879.25;;;19.38;70.42
17936;BME280;9093;52.062;4.508;2023-07-20T10:39:39;101885.06;;;19.44;70.40
17936;BME280;9093;52.062;4.508;2023-07-20T10:42:20;101879.22;;;19.50;70.38
17936;BME280;9093;52.062;4.508;2023-07-20T10:45:01;101879.63;;;19.57;70.09
17936;BME280;9093;52.062;4.508;2023-07-20T10:47:47;101880.25;;;19.60;69.97
17936;BME280;9093;52.062;4.508;2023-07-20T10:50:28;101879.06;;;19.64;69.71
17936;BME280;9093;52.062;4.508;2023-07-20T10:53:18;101888.69;;;19.68;69.88
17936;BME280;9093;52.062;4.508;2023-07-20T10:56:12;101875.03;;;19.70;69.38
17936;BME280;9093;52.062;4.508;2023-07-20T10:58:58;101873.94;;;19.73;69.01
17936;BME280;9093;52.062;4.508;2023-07-20T11:01:41;101870.97;;;19.76;69.09
17936;BME280;9093;52.062;4.508;2023-07-20T11:04:43;101873.22;;;19.82;69.04
17936;BME280;9093;52.062;4.508;2023-07-20T11:07:37;101869.06;;;19.89;69.28
17936;BME280;9093;52.062;4.508;2023-07-20T11:10:18;101872.28;;;19.94;68.95
17936;BME280;9093;52.062;4.508;2023-07-20T11:13:19;101864.53;;;20.00;68.63
17936;BME280;9093;52.062;4.508;2023-07-20T11:18:40;101872.94;;;20.08;67.95
17936;BME280;9093;52.062;4.508;2023-07-20T11:21:20;101864.81;;;20.08;67.78
17936;BME280;9093;52.062;4.508;2023-07-20T11:24:03;101865.44;;;20.12;67.77
17936;BME280;9093;52.062;4.508;2023-07-20T11:26:51;101867.06;;;20.15;67.50
17936;BME280;9093;52.062;4.508;2023-07-20T11:29:31;101860.41;;;20.19;66.70
17936;BME280;9093;52.062;4.508;2023-07-20T11:32:12;101865.59;;;20.22;66.25
17936;BME280;9093;52.062;4.508;2023-07-20T11:34:52;101859.69;;;20.28;65.97
17936;BME280;9093;52.062;4.508;2023-07-20T11:37:33;101850.13;;;20.35;66.17
17936;BME280;9093;52.062;4.508;2023-07-20T11:40:13;101848.66;;;20.42;66.23
17936;BME280;9093;52.062;4.508;2023-07-20T11:42:54;101845.56;;;20.46;65.86
17936;BME280;9093;52.062;4.508;2023-07-20T11:45:35;101850.41;;;20.54;65.98
17936;BME280;9093;52.062;4.508;2023-07-20T11:48:16;101855.31;;;20.60;65.47
17936;BME280;9093;52.062;4.508;2023-07-20T11:50:56;101849.16;;;20.58;65.76
17936;BME280;9093;52.062;4.508;2023-07-20T11:53:36;101854.81;;;20.55;65.24
17936;BME280;9093;52.062;4.508;2023-07-20T11:56:17;101850.13;;;20.57;65.40
17936;BME280;9093;52.062;4.508;2023-07-20T11:58:58;101842.63;;;20.61;64.79
17936;BME280;9093;52.062;4.508;2023-07-20T12:01:42;101845.72;;;20.67;64.63
17936;BME280;9093;52.062;4.508;2023-07-20T12:04:23;101847.19;;;20.71;64.65
17936;BME280;9093;52.062;4.508;2023-07-20T12:07:03;101844.97;;;20.76;64.08
17936;BME280;9093;52.062;4.508;2023-07-20T12:10:09;101841.75;;;20.82;64.09
17936;BME280;9093;52.062;4.508;2023-07-20T12:12:49;101832.00;;;20.91;63.83
17936;BME280;9093;52.062;4.508;2023-07-20T12:15:30;101849.25;;;21.01;64.35
17936;BME280;9093;52.062;4.508;2023-07-20T12:18:11;101840.47;;;21.09;64.04
17936;BME280;9093;52.062;4.508;2023-07-20T12:20:58;101836.50;;;21.13;63.42
17936;BME280;9093;52.062;4.508;2023-07-20T12:23:40;101839.28;;;21.24;63.44
17936;BME280;9093;52.062;4.508;2023-07-20T12:26:21;101829.06;;;21.37;63.10
17936;BME280;9093;52.062;4.508;2023-07-20T12:29:04;101836.22;;;21.49;63.01
17936;BME280;9093;52.062;4.508;2023-07-20T12:31:44;101831.59;;;21.61;63.32
17936;BME280;9093;52.062;4.508;2023-07-20T12:34:25;101829.41;;;21.76;63.40
17936;BME280;9093;52.062;4.508;2023-07-20T12:37:06;101830.38;;;21.86;62.86
17936;BME280;9093;52.062;4.508;2023-07-20T12:39:47;101834.44;;;21.91;63.15
17936;BME280;9093;52.062;4.508;2023-07-20T12:42:27;101835.00;;;21.95;62.95
17936;BME280;9093;52.062;4.508;2023-07-20T12:45:08;101833.31;;;21.94;62.52
17936;BME280;9093;52.062;4.508;2023-07-20T12:47:48;101832.44;;;21.93;61.92
17936;BME280;9093;52.062;4.508;2023-07-20T12:50:29;101825.16;;;21.94;61.15
17936;BME280;9093;52.062;4.508;2023-07-20T12:53:10;101828.09;;;22.02;60.97
17936;BME280;9093;52.062;4.508;2023-07-20T12:55:50;101829.28;;;22.09;61.07
17936;BME280;9093;52.062;4.508;2023-07-20T12:58:30;101828.63;;;22.17;61.09
17936;BME280;9093;52.062;4.508;2023-07-20T13:01:11;101816.34;;;22.22;60.07
17936;BME280;9093;52.062;4.508;2023-07-20T13:03:51;101824.09;;;22.27;59.64
17936;BME280;9093;52.062;4.508;2023-07-20T13:06:31;101825.56;;;22.31;59.65
17936;BME280;9093;52.062;4.508;2023-07-20T13:09:11;101816.66;;;22.29;59.59
17936;BME280;9093;52.062;4.508;2023-07-20T13:11:52;101817.25;;;22.32;59.41
17936;BME280;9093;52.062;4.508;2023-07-20T13:14:33;101810.69;;;22.35;59.31
17936;BME280;9093;52.062;4.508;2023-07-20T13:17:13;101818.44;;;22.39;58.94
17936;BME280;9093;52.062;4.508;2023-07-20T13:19:54;101817.84;;;22.36;58.65
17936;BME280;9093;52.062;4.508;2023-07-20T13:22:34;101817.97;;;22.34;58.44
17936;BME280;9093;52.062;4.508;2023-07-20T13:25:15;101809.09;;;22.32;57.74
17936;BME280;9093;52.062;4.508;2023-07-20T13:27:56;101802.66;;;22.33;57.51
17936;BME280;9093;52.062;4.508;2023-07-20T13:30:36;101800.66;;;22.35;57.44
17936;BME280;9093;52.062;4.508;2023-07-20T13:33:16;101803.72;;;22.42;57.71
17936;BME280;9093;52.062;4.508;2023-07-20T13:35:56;101808.03;;;22.44;57.20
17936;BME280;9093;52.062;4.508;2023-07-20T13:38:37;101804.44;;;22.44;57.41
17936;BME280;9093;52.062;4.508;2023-07-20T13:41:17;101798.13;;;22.43;56.98
17936;BME280;9093;52.062;4.508;2023-07-20T13:43:57;101803.03;;;22.50;57.26
17936;BME280;9093;52.062;4.508;2023-07-20T13:46:38;101803.06;;;22.59;56.79
17936;BME280;9093;52.062;4.508;2023-07-20T13:49:19;101805.97;;;22.67;56.36
17936;BME280;9093;52.062;4.508;2023-07-20T13:52:00;101795.28;;;22.75;55.94
17936;BME280;9093;52.062;4.508;2023-07-20T13:54:40;101795.44;;;22.74;56.04
17936;BME280;9093;52.062;4.508;2023-07-20T13:57:20;101796.00;;;22.77;56.04
17936;BME280;9093;52.062;4.508;2023-07-20T14:00:02;101787.13;;;22.85;55.37
17936;BME280;9093;52.062;4.508;2023-07-20T14:02:44;101791.75;;;22.94;55.41
17936;BME280;9093;52.062;4.508;2023-07-20T14:05:25;101784.91;;;23.00;55.39
17936;BME280;9093;52.062;4.508;2023-07-20T14:08:05;101783.47;;;23.05;55.55
17936;BME280;9093;52.062;4.508;2023-07-20T14:10:46;101784.34;;;23.15;55.25
17936;BME280;9093;52.062;4.508;2023-07-20T14:13:26;101784.38;;;23.25;54.78
17936;BME280;9093;52.062;4.508;2023-07-20T14:16:07;101779.78;;;23.45;54.39
17936;BME280;9093;52.062;4.508;2023-07-20T14:18:49;101778.06;;;23.44;54.59
17936;BME280;9093;52.062;4.508;2023-07-20T14:21:29;101778.38;;;23.50;54.20
17936;BME280;9093;52.062;4.508;2023-07-20T14:24:12;101778.09;;;23.63;54.16